sensor_id;sensor_type;location;lat;lon;timestamp;pressure;altitude;pressure_sealevel;temperature;humidity
73941;BME280;62294;48.554;10.202;2022-08-07T00:00:34;96697.94;;;12.14;78.92
73941;BME280;62294;48.554;10.202;2022-08-07T00:03:06;96690.38;;;12.11;79.11
73941;BME280;62294;48.554;10.202;2022-08-07T00:05:34;96700.66;;;12.01;79.39
73941;BME280;62294;48.554;10.202;2022-08-07T00:08:03;96704.19;;;11.95;79.39
73941;BME280;62294;48.554;10.202;2022-08-07T00:10:30;96695.34;;;12.01;79.41
73941;BME280;62294;48.554;10.202;2022-08-07T00:12:59;96699.69;;;11.95;78.55
73941;BME280;62294;48.554;10.202;2022-08-07T00:15:46;96705.22;;;11.94;78.63
73941;BME280;62294;48.554;10.202;2022-08-07T00:18:18;96710.97;;;11.91;78.71
73941;BME280;62294;48.554;10.202;2022-08-07T00:20:55;96705.91;;;11.70;79.28
73941;BME280;62294;48.554;10.202;2022-08-07T00:23:35;96710.63;;;11.74;79.79
73941;BME280;62294;48.554;10.202;2022-08-07T00:26:06;96704.84;;;11.77;79.52
73941;BME280;62294;48.554;10.202;2022-08-07T00:28:54;96708.16;;;11.73;79.34
73941;BME280;62294;48.554;10.202;2022-08-07T00:31:22;96704.06;;;11.77;79.46
73941;BME280;62294;48.554;10.202;2022-08-07T00:34:06;96717.56;;;11.62;79.17
73941;BME280;62294;48.554;10.202;2022-08-07T00:36:34;96721.28;;;11.68;79.31
73941;BME280;62294;48.554;10.202;2022-08-07T00:39:03;96714.50;;;11.72;78.41
73941;BME280;62294;48.554;10.202;2022-08-07T00:41:31;96719.84;;;11.72;78.97
73941;BME280;62294;48.554;10.202;2022-08-07T00:44:10;96711.84;;;11.72;78.34
73941;BME280;62294;48.554;10.202;2022-08-07T00:46:40;96711.88;;;11.59;79.11
73941;BME280;62294;48.554;10.202;2022-08-07T00:49:08;96708.97;;;11.67;78.72
73941;BME280;62294;48.554;10.202;2022-08-07T00:51:50;96713.69;;;11.65;78.98
73941;BME280;62294;48.554;10.202;2022-08-07T00:54:23;96710.88;;;11.47;79.01
73941;BME280;62294;48.554;10.202;2022-08-07T00:56:50;96708.41;;;11.38;79.19
73941;BME280;62294;48.554;10.202;2022-08-07T00:59:18;96708.03;;;11.28;79.44
73941;BME280;62294;48.554;10.202;2022-08-07T01:02:02;96711.09;;;11.25;79.31
73941;BME280;62294;48.554;10.202;2022-08-07T01:04:34;96699.84;;;11.30;79.25
73941;BME280;62294;48.554;10.202;2022-08-07T01:07:09;96701.06;;;11.21;79.71
73941;BME280;62294;48.554;10.202;2022-08-07T01:09:36;96695.38;;;11.17;79.65
73941;BME280;62294;48.554;10.202;2022-08-07T01:12:23;96701.09;;;11.08;79.64
73941;BME280;62294;48.554;10.202;2022-08-07T01:14:56;96697.84;;;11.06;80.16
73941;BME280;62294;48.554;10.202;2022-08-07T01:17:29;96699.88;;;11.10;79.49
73941;BME280;62294;48.554;10.202;2022-08-07T01:20:02;96702.31;;;11.12;79.33
73941;BME280;62294;48.554;10.202;2022-08-07T01:22:29;96702.94;;;10.94;79.84
73941;BME280;62294;48.554;10.202;2022-08-07T01:24:57;96699.66;;;11.05;80.11
73941;BME280;62294;48.554;10.202;2022-08-07T01:27:24;96693.53;;;11.05;79.56
73941;BME280;62294;48.554;10.202;2022-08-07T01:29:57;96690.69;;;11.06;79.71
73941;BME280;62294;48.554;10.202;2022-08-07T01:32:26;96694.56;;;11.10;79.09
73941;BME280;62294;48.554;10.202;2022-08-07T01:34:54;96686.34;;;11.18;78.80
73941;BME280;62294;48.554;10.202;2022-08-07T01:37:22;96693.91;;;11.21;78.54
73941;BME280;62294;48.554;10.202;2022-08-07T01:39:50;96686.13;;;11.26;78.87
73941;BME280;62294;48.554;10.202;2022-08-07T01:42:18;96685.94;;;11.21;78.72
73941;BME280;62294;48.554;10.202;2022-08-07T01:45:05;96690.41;;;11.27;78.52
73941;BME280;62294;48.554;10.202;2022-08-07T01:47:41;96688.19;;;11.24;78.61
73941;BME280;62294;48.554;10.202;2022-08-07T01:50:29;96684.09;;;11.28;78.61
73941;BME280;62294;48.554;10.202;2022-08-07T01:52:57;96678.75;;;11.28;78.16
73941;BME280;62294;48.554;10.202;2022-08-07T01:55:27;96669.75;;;11.29;78.56
73941;BME280;62294;48.554;10.202;2022-08-07T01:57:59;96675.06;;;11.29;78.16
73941;BME280;62294;48.554;10.202;2022-08-07T02:00:50;96674.25;;;11.29;78.23
73941;BME280;62294;48.554;10.202;2022-08-07T02:03:42;96679.56;;;11.35;77.90
73941;BME280;62294;48.554;10.202;2022-08-07T02:06:17;96669.13;;;11.40;78.46
73941;BME280;62294;48.554;10.202;2022-08-07T02:08:59;96669.72;;;11.49;77.13
73941;BME280;62294;48.554;10.202;2022-08-07T02:11:32;96667.22;;;11.61;76.86
73941;BME280;62294;48.554;10.202;2022-08-07T02:14:20;96672.13;;;11.70;76.79
73941;BME280;62294;48.554;10.202;2022-08-07T02:17:06;96668.41;;;11.78;76.21
73941;BME280;62294;48.554;10.202;2022-08-07T02:19:34;96670.84;;;11.86;76.07
73941;BME280;62294;48.554;10.202;2022-08-07T02:22:24;96664.31;;;11.82;75.44
73941;BME280;62294;48.554;10.202;2022-08-07T02:24:54;96662.66;;;11.81;75.69
73941;BME280;62294;48.554;10.202;2022-08-07T02:27:24;96659.34;;;11.85;75.56
73941;BME280;62294;48.554;10.202;2022-08-07T02:30:01;96658.91;;;11.95;74.57
73941;BME280;62294;48.554;10.202;2022-08-07T02:32:33;96657.03;;;12.02;75.55
73941;BME280;62294;48.554;10.202;2022-08-07T02:35:23;96658.44;;;12.04;75.22
73941;BME280;62294;48.554;10.202;2022-08-07T02:38:11;96653.75;;;12.00;74.65
73941;BME280;62294;48.554;10.202;2022-08-07T02:40:41;96654.38;;;12.02;75.37
73941;BME280;62294;48.554;10.202;2022-08-07T02:43:14;96654.50;;;12.07;75.01
73941;BME280;62294;48.554;10.202;2022-08-07T02:45:41;96645.69;;;12.13;75.20
73941;BME280;62294;48.554;10.202;2022-08-07T02:48:27;96657.59;;;12.10;75.11
73941;BME280;62294;48.554;10.202;2022-08-07T02:50:54;96654.88;;;12.17;75.30
73941;BME280;62294;48.554;10.202;2022-08-07T02:53:27;96664.94;;;12.15;75.43
73941;BME280;62294;48.554;10.202;2022-08-07T02:56:06;96665.16;;;12.14;75.63
73941;BME280;62294;48.554;10.202;2022-08-07T02:58:48;96654.28;;;12.15;76.08
73941;BME280;62294;48.554;10.202;2022-08-07T03:01:17;96664.94;;;12.15;75.79
73941;BME280;62294;48.554;10.202;2022-08-07T03:04:06;96663.47;;;12.19;75.91
73941;BME280;62294;48.554;10.202;2022-08-07T03:06:39;96661.22;;;12.23;75.80
73941;BME280;62294;48.554;10.202;2022-08-07T03:09:10;96661.63;;;12.20;76.05
73941;BME280;62294;48.554;10.202;2022-08-07T03:11:39;96664.06;;;12.21;76.24
73941;BME280;62294;48.554;10.202;2022-08-07T03:14:23;96667.34;;;12.23;76.81
73941;BME280;62294;48.554;10.202;2022-08-07T03:16:54;96668.75;;;12.26;77.32
73941;BME280;62294;48.554;10.202;2022-08-07T03:19:21;96667.31;;;12.30;77.15
73941;BME280;62294;48.554;10.202;2022-08-07T03:21:48;96659.97;;;12.25;77.21
73941;BME280;62294;48.554;10.202;2022-08-07T03:24:16;96660.41;;;12.22;77.32
73941;BME280;62294;48.554;10.202;2022-08-07T03:26:55;96671.66;;;12.24;77.33
73941;BME280;62294;48.554;10.202;2022-08-07T03:29:28;96664.69;;;12.23;78.03
73941;BME280;62294;48.554;10.202;2022-08-07T03:32:01;96668.56;;;12.27;78.33
73941;BME280;62294;48.554;10.202;2022-08-07T03:34:30;96675.50;;;12.28;78.13
73941;BME280;62294;48.554;10.202;2022-08-07T03:37:06;96675.50;;;12.28;78.42
73941;BME280;62294;48.554;10.202;2022-08-07T03:39:38;96676.75;;;12.26;78.77
73941;BME280;62294;48.554;10.202;2022-08-07T03:42:25;96675.34;;;12.23;79.15
73941;BME280;62294;48.554;10.202;2022-08-07T03:44:52;96668.56;;;12.27;79.48
73941;BME280;62294;48.554;10.202;2022-08-07T03:47:24;96655.84;;;12.29;79.37
73941;BME280;62294;48.554;10.202;2022-08-07T03:49:54;96668.56;;;12.27;79.73
73941;BME280;62294;48.554;10.202;2022-08-07T03:52:24;96660.31;;;12.35;80.00
73941;BME280;62294;48.554;10.202;2022-08-07T03:54:56;96667.09;;;12.31;80.20
73941;BME280;62294;48.554;10.202;2022-08-07T03:57:33;96661.50;;;12.39;79.81
73941;BME280;62294;48.554;10.202;2022-08-07T04:00:20;96662.63;;;12.25;81.00
73941;BME280;62294;48.554;10.202;2022-08-07T04:02:59;96665.44;;;12.30;81.08
73941;BME280;62294;48.554;10.202;2022-08-07T04:05:33;96663.56;;;12.37;80.90
73941;BME280;62294;48.554;10.202;2022-08-07T04:08:11;96657.81;;;12.40;80.76
73941;BME280;62294;48.554;10.202;2022-08-07T04:10:42;96663.91;;;12.47;81.10
73941;BME280;62294;48.554;10.202;2022-08-07T04:13:29;96659.72;;;12.58;80.60
73941;BME280;62294;48.554;10.202;2022-08-07T04:16:16;96671.44;;;12.57;81.00
73941;BME280;62294;48.554;10.202;2022-08-07T04:18:57;96666.25;;;12.62;80.96
73941;BME280;62294;48.554;10.202;2022-08-07T04:21:30;96668.91;;;12.68;80.72
73941;BME280;62294;48.554;10.202;2022-08-07T04:24:00;96667.19;;;12.74;80.78
73941;BME280;62294;48.554;10.202;2022-08-07T04:26:33;96664.13;;;12.77;80.60
73941;BME280;62294;48.554;10.202;2022-08-07T04:29:00;96664.06;;;12.83;80.66
73941;BME280;62294;48.554;10.202;2022-08-07T04:31:28;96667.66;;;12.96;80.46
73941;BME280;62294;48.554;10.202;2022-08-07T04:34:15;96671.88;;;12.78;81.27
73941;BME280;62294;48.554;10.202;2022-08-07T04:36:58;96672.06;;;12.83;81.38
73941;BME280;62294;48.554;10.202;2022-08-07T04:39:25;96674.72;;;12.83;81.22
73941;BME280;62294;48.554;10.202;2022-08-07T04:42:02;96675.09;;;12.87;81.71
73941;BME280;62294;48.554;10.202;2022-08-07T04:44:29;96682.91;;;12.89;81.73
73941;BME280;62294;48.554;10.202;2022-08-07T04:47:11;96684.03;;;12.99;82.54
73941;BME280;62294;48.554;10.202;2022-08-07T04:50:02;96686.09;;;13.22;81.39
73941;BME280;62294;48.554;10.202;2022-08-07T04:52:48;96680.84;;;13.15;81.15
73941;BME280;62294;48.554;10.202;2022-08-07T05:01:55;96683.00;;;13.25;80.59
73941;BME280;62294;48.554;10.202;2022-08-07T05:07:18;96686.44;;;13.32;80.29
73941;BME280;62294;48.554;10.202;2022-08-07T05:10:10;96687.03;;;13.34;80.34
73941;BME280;62294;48.554;10.202;2022-08-07T05:12:48;96674.88;;;13.56;80.29
73941;BME280;62294;48.554;10.202;2022-08-07T05:15:24;96679.31;;;13.62;79.91
73941;BME280;62294;48.554;10.202;2022-08-07T05:18:01;96678.88;;;13.65;79.67
73941;BME280;62294;48.554;10.202;2022-08-07T05:20:44;96685.41;;;13.87;78.93
73941;BME280;62294;48.554;10.202;2022-08-07T05:23:22;96681.25;;;13.91;79.47
73941;BME280;62294;48.554;10.202;2022-08-07T05:25:55;96669.81;;;13.84;79.33
73941;BME280;62294;48.554;10.202;2022-08-07T05:28:43;96683.03;;;13.97;79.39
73941;BME280;62294;48.554;10.202;2022-08-07T05:31:16;96676.94;;;13.90;79.87
73941;BME280;62294;48.554;10.202;2022-08-07T05:33:46;96684.31;;;14.24;79.16
73941;BME280;62294;48.554;10.202;2022-08-07T05:36:31;96675.41;;;14.31;78.55
73941;BME280;62294;48.554;10.202;2022-08-07T05:39:01;96678.13;;;14.42;78.33
73941;BME280;62294;48.554;10.202;2022-08-07T05:41:49;96680.38;;;14.57;77.52
73941;BME280;62294;48.554;10.202;2022-08-07T05:44:29;96686.72;;;14.85;76.82
73941;BME280;62294;48.554;10.202;2022-08-07T05:46:58;96680.59;;;15.08;75.62
73941;BME280;62294;48.554;10.202;2022-08-07T05:49:26;96676.53;;;15.06;75.52
73941;BME280;62294;48.554;10.202;2022-08-07T05:52:06;96687.50;;;15.50;74.43
73941;BME280;62294;48.554;10.202;2022-08-07T05:54:37;96690.00;;;15.92;73.47
73941;BME280;62294;48.554;10.202;2022-08-07T05:57:19;96683.03;;;17.75;69.46
73941;BME280;62294;48.554;10.202;2022-08-07T05:59:47;96687.66;;;18.01;65.97
73941;BME280;62294;48.554;10.202;2022-08-07T06:02:25;96689.38;;;19.09;63.96
73941;BME280;62294;48.554;10.202;2022-08-07T06:04:58;96683.13;;;19.35;60.51
73941;BME280;62294;48.554;10.202;2022-08-07T06:07:28;96694.19;;;20.22;57.37
73941;BME280;62294;48.554;10.202;2022-08-07T06:10:15;96695.09;;;20.48;54.42
73941;BME280;62294;48.554;10.202;2022-08-07T06:12:44;96697.22;;;20.41;53.51
73941;BME280;62294;48.554;10.202;2022-08-07T06:15:14;96687.13;;;21.39;49.43
73941;BME280;62294;48.554;10.202;2022-08-07T06:17:46;96689.28;;;21.27;49.53
73941;BME280;62294;48.554;10.202;2022-08-07T06:20:21;96688.44;;;22.50;46.70
73941;BME280;62294;48.554;10.202;2022-08-07T06:22:58;96692.47;;;22.58;45.36
73941;BME280;62294;48.554;10.202;2022-08-07T06:25:45;96686.69;;;23.81;41.63
73941;BME280;62294;48.554;10.202;2022-08-07T06:28:22;96695.34;;;24.12;41.16
73941;BME280;62294;48.554;10.202;2022-08-07T06:30:53;96691.69;;;23.97;40.12
73941;BME280;62294;48.554;10.202;2022-08-07T06:33:20;96698.72;;;23.41;41.24
73941;BME280;62294;48.554;10.202;2022-08-07T06:35:48;96682.94;;;23.09;40.35
73941;BME280;62294;48.554;10.202;2022-08-07T06:38:34;96688.88;;;22.78;41.38
73941;BME280;62294;48.554;10.202;2022-08-07T06:41:05;96685.06;;;23.51;40.18
73941;BME280;62294;48.554;10.202;2022-08-07T06:43:38;96687.53;;;23.14;39.77
73941;BME280;62294;48.554;10.202;2022-08-07T06:46:12;96684.03;;;24.47;37.03
73941;BME280;62294;48.554;10.202;2022-08-07T06:48:45;96687.38;;;24.20;37.04
73941;BME280;62294;48.554;10.202;2022-08-07T06:51:16;96684.38;;;24.22;36.46
73941;BME280;62294;48.554;10.202;2022-08-07T06:53:58;96685.09;;;24.04;37.66
73941;BME280;62294;48.554;10.202;2022-08-07T06:56:49;96682.75;;;23.68;36.86
73941;BME280;62294;48.554;10.202;2022-08-07T06:59:20;96685.13;;;23.46;37.36
73941;BME280;62294;48.554;10.202;2022-08-07T07:02:15;96676.78;;;21.66;40.31
73941;BME280;62294;48.554;10.202;2022-08-07T07:05:02;96676.06;;;23.27;37.63
73941;BME280;62294;48.554;10.202;2022-08-07T07:07:29;96684.75;;;24.10;35.81
73941;BME280;62294;48.554;10.202;2022-08-07T07:10:27;96674.94;;;24.80;34.99
73941;BME280;62294;48.554;10.202;2022-08-07T07:13:02;96671.31;;;25.03;34.18
73941;BME280;62294;48.554;10.202;2022-08-07T07:15:40;96679.59;;;25.63;33.03
73941;BME280;62294;48.554;10.202;2022-08-07T07:21:15;96674.63;;;24.21;35.26
73941;BME280;62294;48.554;10.202;2022-08-07T07:23:46;96668.06;;;23.98;35.40
73941;BME280;62294;48.554;10.202;2022-08-07T07:26:33;96675.19;;;24.18;35.78
73941;BME280;62294;48.554;10.202;2022-08-07T07:29:13;96664.97;;;25.08;33.87
73941;BME280;62294;48.554;10.202;2022-08-07T07:32:02;96664.69;;;25.09;33.84
73941;BME280;62294;48.554;10.202;2022-08-07T07:34:33;96662.13;;;24.99;34.51
73941;BME280;62294;48.554;10.202;2022-08-07T07:37:05;96663.13;;;26.00;33.02
73941;BME280;62294;48.554;10.202;2022-08-07T07:39:57;96653.59;;;25.57;32.35
73941;BME280;62294;48.554;10.202;2022-08-07T07:42:26;96653.91;;;25.36;32.49
73941;BME280;62294;48.554;10.202;2022-08-07T07:45:03;96661.97;;;25.09;32.59
73941;BME280;62294;48.554;10.202;2022-08-07T07:47:33;96653.84;;;25.87;32.21
73941;BME280;62294;48.554;10.202;2022-08-07T07:50:19;96647.25;;;25.10;33.04
73941;BME280;62294;48.554;10.202;2022-08-07T07:53:05;96645.78;;;25.96;30.29
73941;BME280;62294;48.554;10.202;2022-08-07T07:55:51;96650.41;;;26.09;31.51
73941;BME280;62294;48.554;10.202;2022-08-07T07:58:25;96645.72;;;27.35;29.88
73941;BME280;62294;48.554;10.202;2022-08-07T08:00:56;96646.22;;;26.17;30.97
73941;BME280;62294;48.554;10.202;2022-08-07T08:03:27;96640.72;;;27.15;29.46
73941;BME280;62294;48.554;10.202;2022-08-07T08:06:14;96647.75;;;25.77;30.79
73941;BME280;62294;48.554;10.202;2022-08-07T08:08:42;96635.41;;;26.25;30.37
73941;BME280;62294;48.554;10.202;2022-08-07T08:11:13;96648.75;;;24.65;32.78
73941;BME280;62294;48.554;10.202;2022-08-07T08:14:00;96646.66;;;25.32;31.73
73941;BME280;62294;48.554;10.202;2022-08-07T08:16:38;96630.50;;;25.35;32.05
73941;BME280;62294;48.554;10.202;2022-08-07T08:19:07;96629.69;;;25.54;31.98
73941;BME280;62294;48.554;10.202;2022-08-07T08:21:57;96626.69;;;26.50;30.19
73941;BME280;62294;48.554;10.202;2022-08-07T08:24:44;96631.44;;;25.77;31.41
73941;BME280;62294;48.554;10.202;2022-08-07T08:27:53;96631.13;;;25.32;32.83
73941;BME280;62294;48.554;10.202;2022-08-07T08:30:28;96630.31;;;24.81;33.81
73941;BME280;62294;48.554;10.202;2022-08-07T08:32:59;96640.41;;;25.64;32.21
73941;BME280;62294;48.554;10.202;2022-08-07T08:35:29;96628.16;;;25.48;32.32
73941;BME280;62294;48.554;10.202;2022-08-07T08:38:17;96625.09;;;25.95;32.34
73941;BME280;62294;48.554;10.202;2022-08-07T08:41:13;96635.72;;;23.49;35.87
73941;BME280;62294;48.554;10.202;2022-08-07T08:46:42;96637.78;;;23.86;36.11
73941;BME280;62294;48.554;10.202;2022-08-07T08:49:30;96642.94;;;24.72;34.68
73941;BME280;62294;48.554;10.202;2022-08-07T08:52:25;96639.59;;;25.90;33.11
73941;BME280;62294;48.554;10.202;2022-08-07T08:57:44;96641.31;;;24.10;35.56
73941;BME280;62294;48.554;10.202;2022-08-07T09:00:15;96644.06;;;24.29;35.67
73941;BME280;62294;48.554;10.202;2022-08-07T09:03:05;96633.66;;;25.10;34.12
73941;BME280;62294;48.554;10.202;2022-08-07T09:05:50;96628.03;;;25.07;33.19
73941;BME280;62294;48.554;10.202;2022-08-07T09:08:30;96638.16;;;25.33;33.44
73941;BME280;62294;48.554;10.202;2022-08-07T09:11:23;96637.28;;;24.87;34.49
73941;BME280;62294;48.554;10.202;2022-08-07T09:14:22;96625.66;;;24.02;35.14
73941;BME280;62294;48.554;10.202;2022-08-07T09:20:41;96632.75;;;23.98;35.82
73941;BME280;62294;48.554;10.202;2022-08-07T09:26:55;96630.75;;;27.33;29.24
73941;BME280;62294;48.554;10.202;2022-08-07T09:33:03;96629.91;;;27.24;28.97
73941;BME280;62294;48.554;10.202;2022-08-07T09:35:57;96631.00;;;27.01;29.92
73941;BME280;62294;48.554;10.202;2022-08-07T09:38:44;96626.41;;;27.54;28.47
73941;BME280;62294;48.554;10.202;2022-08-07T09:41:43;96630.13;;;27.36;27.34
73941;BME280;62294;48.554;10.202;2022-08-07T09:44:47;96632.34;;;27.34;28.25
73941;BME280;62294;48.554;10.202;2022-08-07T09:47:59;96625.31;;;27.86;27.64
73941;BME280;62294;48.554;10.202;2022-08-07T09:50:59;96625.41;;;27.50;27.76
73941;BME280;62294;48.554;10.202;2022-08-07T09:53:41;96621.03;;;28.50;27.85
73941;BME280;62294;48.554;10.202;2022-08-07T10:11:35;96602.91;;;26.15;30.24
73941;BME280;62294;48.554;10.202;2022-08-07T10:22:35;96600.06;;;27.89;27.76
73941;BME280;62294;48.554;10.202;2022-08-07T10:27:56;96606.28;;;27.72;27.68
73941;BME280;62294;48.554;10.202;2022-08-07T10:35:59;96591.72;;;26.17;29.33
73941;BME280;62294;48.554;10.202;2022-08-07T10:38:49;96586.94;;;27.60;27.98
73941;BME280;62294;48.554;10.202;2022-08-07T10:41:34;96583.91;;;28.74;27.02
73941;BME280;62294;48.554;10.202;2022-08-07T10:50:24;96584.94;;;27.83;27.06
73941;BME280;62294;48.554;10.202;2022-08-07T10:53:09;96586.81;;;27.65;26.96
73941;BME280;62294;48.554;10.202;2022-08-07T10:55:55;96585.84;;;28.00;26.03
73941;BME280;62294;48.554;10.202;2022-08-07T10:58:52;96573.50;;;27.72;26.17
73941;BME280;62294;48.554;10.202;2022-08-07T11:10:53;96553.97;;;28.69;26.14
73941;BME280;62294;48.554;10.202;2022-08-07T11:13:36;96552.16;;;29.08;24.12
73941;BME280;62294;48.554;10.202;2022-08-07T11:16:39;96551.50;;;27.77;26.63
73941;BME280;62294;48.554;10.202;2022-08-07T11:19:28;96556.22;;;28.76;25.89
73941;BME280;62294;48.554;10.202;2022-08-07T11:25:35;96544.91;;;29.03;24.39
73941;BME280;62294;48.554;10.202;2022-08-07T11:42:22;96524.81;;;30.92;21.56
73941;BME280;62294;48.554;10.202;2022-08-07T11:54:33;96528.50;;;29.03;24.68
73941;BME280;62294;48.554;10.202;2022-08-07T11:57:21;96524.69;;;29.50;23.36
73941;BME280;62294;48.554;10.202;2022-08-07T12:00:19;96519.31;;;29.63;23.43
73941;BME280;62294;48.554;10.202;2022-08-07T12:09:08;96516.25;;;29.26;23.70
73941;BME280;62294;48.554;10.202;2022-08-07T12:11:56;96524.94;;;26.41;27.71
73941;BME280;62294;48.554;10.202;2022-08-07T12:14:58;96515.03;;;28.64;25.05
73941;BME280;62294;48.554;10.202;2022-08-07T12:17:47;96512.97;;;27.79;26.03
73941;BME280;62294;48.554;10.202;2022-08-07T12:20:44;96509.22;;;29.55;24.32
73941;BME280;62294;48.554;10.202;2022-08-07T12:23:37;96504.81;;;30.00;22.97
73941;BME280;62294;48.554;10.202;2022-08-07T12:26:32;96493.47;;;28.45;23.67
73941;BME280;62294;48.554;10.202;2022-08-07T12:29:47;96497.00;;;29.52;22.79
73941;BME280;62294;48.554;10.202;2022-08-07T12:32:33;96496.72;;;30.33;22.08
73941;BME280;62294;48.554;10.202;2022-08-07T12:35:07;96491.19;;;30.12;22.42
73941;BME280;62294;48.554;10.202;2022-08-07T12:37:39;96489.56;;;29.90;23.00
73941;BME280;62294;48.554;10.202;2022-08-07T12:40:28;96487.69;;;29.74;23.73
73941;BME280;62294;48.554;10.202;2022-08-07T12:43:15;96492.53;;;29.77;24.14
73941;BME280;62294;48.554;10.202;2022-08-07T12:46:10;96483.09;;;31.43;21.55
73941;BME280;62294;48.554;10.202;2022-08-07T12:52:13;96479.00;;;29.72;22.94
73941;BME280;62294;48.554;10.202;2022-08-07T12:55:02;96471.03;;;29.87;22.95
73941;BME280;62294;48.554;10.202;2022-08-07T12:57:36;96476.56;;;28.52;24.93
73941;BME280;62294;48.554;10.202;2022-08-07T13:00:30;96485.25;;;28.54;24.84
73941;BME280;62294;48.554;10.202;2022-08-07T13:09:26;96465.53;;;29.96;22.90
73941;BME280;62294;48.554;10.202;2022-08-07T13:12:27;96464.09;;;29.23;24.25
73941;BME280;62294;48.554;10.202;2022-08-07T13:15:20;96460.47;;;29.39;23.28
73941;BME280;62294;48.554;10.202;2022-08-07T13:18:15;96463.44;;;29.55;23.57
73941;BME280;62294;48.554;10.202;2022-08-07T13:21:17;96457.25;;;28.57;24.94
73941;BME280;62294;48.554;10.202;2022-08-07T13:24:17;96458.88;;;29.68;23.64
73941;BME280;62294;48.554;10.202;2022-08-07T13:27:13;96458.09;;;30.17;22.79
73941;BME280;62294;48.554;10.202;2022-08-07T13:29:57;96445.06;;;29.09;24.38
73941;BME280;62294;48.554;10.202;2022-08-07T13:32:34;96448.44;;;29.23;23.72
73941;BME280;62294;48.554;10.202;2022-08-07T13:35:30;96455.72;;;30.90;22.15
73941;BME280;62294;48.554;10.202;2022-08-07T13:38:24;96430.16;;;29.44;23.28
73941;BME280;62294;48.554;10.202;2022-08-07T13:41:03;96446.94;;;30.22;22.41
73941;BME280;62294;48.554;10.202;2022-08-07T13:43:40;96445.47;;;30.04;22.68
73941;BME280;62294;48.554;10.202;2022-08-07T13:46:09;96434.16;;;31.24;21.18
73941;BME280;62294;48.554;10.202;2022-08-07T13:48:57;96429.03;;;29.45;23.20
73941;BME280;62294;48.554;10.202;2022-08-07T13:51:26;96427.91;;;29.76;23.55
73941;BME280;62294;48.554;10.202;2022-08-07T13:54:15;96428.47;;;28.51;25.12
73941;BME280;62294;48.554;10.202;2022-08-07T13:56:52;96429.91;;;28.74;24.73
73941;BME280;62294;48.554;10.202;2022-08-07T13:59:28;96418.66;;;28.67;24.76
73941;BME280;62294;48.554;10.202;2022-08-07T14:02:07;96415.81;;;29.47;23.90
73941;BME280;62294;48.554;10.202;2022-08-07T14:04:49;96428.34;;;30.07;22.96
73941;BME280;62294;48.554;10.202;2022-08-07T14:07:21;96418.94;;;31.15;21.93
73941;BME280;62294;48.554;10.202;2022-08-07T14:09:58;96425.16;;;30.26;22.34
73941;BME280;62294;48.554;10.202;2022-08-07T14:12:51;96419.16;;;30.03;23.02
73941;BME280;62294;48.554;10.202;2022-08-07T14:18:04;96417.78;;;30.38;22.46
73941;BME280;62294;48.554;10.202;2022-08-07T14:21:01;96416.63;;;29.48;24.34
73941;BME280;62294;48.554;10.202;2022-08-07T14:23:39;96412.56;;;30.45;22.46
73941;BME280;62294;48.554;10.202;2022-08-07T14:26:48;96412.44;;;29.04;24.81
73941;BME280;62294;48.554;10.202;2022-08-07T14:29:19;96410.00;;;28.13;25.83
73941;BME280;62294;48.554;10.202;2022-08-07T14:32:09;96409.66;;;27.89;26.71
73941;BME280;62294;48.554;10.202;2022-08-07T14:34:45;96407.06;;;27.19;27.88
73941;BME280;62294;48.554;10.202;2022-08-07T14:37:15;96404.25;;;27.41;27.66
73941;BME280;62294;48.554;10.202;2022-08-07T14:39:44;96402.91;;;28.47;25.51
73941;BME280;62294;48.554;10.202;2022-08-07T14:42:32;96399.25;;;27.35;26.83
73941;BME280;62294;48.554;10.202;2022-08-07T14:45:24;96402.44;;;26.14;28.90
73941;BME280;62294;48.554;10.202;2022-08-07T14:48:13;96403.03;;;26.55;28.49
73941;BME280;62294;48.554;10.202;2022-08-07T14:50:46;96400.25;;;25.53;29.64
73941;BME280;62294;48.554;10.202;2022-08-07T14:53:18;96410.38;;;25.75;29.95
73941;BME280;62294;48.554;10.202;2022-08-07T14:56:07;96400.66;;;25.96;29.15
73941;BME280;62294;48.554;10.202;2022-08-07T14:58:41;96399.03;;;25.59;29.78
73941;BME280;62294;48.554;10.202;2022-08-07T15:01:11;96402.56;;;25.60;29.42
73941;BME280;62294;48.554;10.202;2022-08-07T15:03:49;96400.25;;;25.89;29.42
73941;BME280;62294;48.554;10.202;2022-08-07T15:06:24;96407.47;;;25.71;30.08
73941;BME280;62294;48.554;10.202;2022-08-07T15:08:51;96396.31;;;25.95;29.19
73941;BME280;62294;48.554;10.202;2022-08-07T15:11:46;96403.09;;;25.84;29.13
73941;BME280;62294;48.554;10.202;2022-08-07T15:14:26;96405.97;;;26.01;29.06
73941;BME280;62294;48.554;10.202;2022-08-07T15:16:58;96393.44;;;25.78;29.07
73941;BME280;62294;48.554;10.202;2022-08-07T15:19:29;96402.75;;;25.99;28.93
73941;BME280;62294;48.554;10.202;2022-08-07T15:22:18;96388.97;;;25.60;29.05
73941;BME280;62294;48.554;10.202;2022-08-07T15:25:01;96395.25;;;25.82;28.61
73941;BME280;62294;48.554;10.202;2022-08-07T15:27:53;96398.22;;;25.59;29.23
73941;BME280;62294;48.554;10.202;2022-08-07T15:30:43;96388.06;;;24.96;30.46
73941;BME280;62294;48.554;10.202;2022-08-07T15:33:32;96379.16;;;25.59;29.55
73941;BME280;62294;48.554;10.202;2022-08-07T15:36:21;96392.78;;;25.94;29.40
73941;BME280;62294;48.554;10.202;2022-08-07T15:39:09;96393.69;;;25.54;29.41
73941;BME280;62294;48.554;10.202;2022-08-07T15:42:04;96381.41;;;25.29;29.73
73941;BME280;62294;48.554;10.202;2022-08-07T15:44:52;96382.72;;;25.81;29.46
73941;BME280;62294;48.554;10.202;2022-08-07T15:47:20;96380.84;;;26.04;29.43
73941;BME280;62294;48.554;10.202;2022-08-07T15:50:11;96380.66;;;26.00;28.37
73941;BME280;62294;48.554;10.202;2022-08-07T15:53:22;96377.28;;;26.17;28.16
73941;BME280;62294;48.554;10.202;2022-08-07T15:56:09;96378.44;;;26.02;27.95